createdAt,value
2018-12-20T00:00:45.067Z,38.67
2018-12-20T00:03:13.951Z,39.30
2018-12-20T00:05:42.750Z,61.33
2018-12-20T00:08:11.705Z,51.77
2018-12-20T00:10:40.542Z,49.17
2018-12-20T00:13:09.354Z,43.70
2018-12-20T00:15:38.063Z,31.20
2018-12-20T00:18:06.861Z,42.87
2018-12-20T00:20:35.748Z,56.17
2018-12-20T00:23:04.640Z,50.53
2018-12-20T00:25:33.518Z,52.27
2018-12-20T00:28:02.305Z,53.33
2018-12-20T00:30:30.964Z,53.47
2018-12-20T00:33:00.052Z,46.47
2018-12-20T00:35:28.746Z,43.03
2018-12-20T00:37:57.480Z,50.13
2018-12-20T00:40:26.265Z,51.30
2018-12-20T00:42:55.066Z,30.83
2018-12-20T00:45:23.939Z,57.00
2018-12-20T00:47:52.745Z,56.53
2018-12-20T00:50:21.631Z,52.00
2018-12-20T00:52:50.451Z,57.77
2018-12-20T00:55:19.273Z,45.07
2018-12-20T00:57:48.090Z,56.17
2018-12-20T01:00:18.834Z,48.80
2018-12-20T01:02:55.089Z,51.53
2018-12-20T01:05:18.753Z,48.67
2018-12-20T01:07:47.586Z,44.30
2018-12-20T01:10:16.351Z,58.43
2018-12-20T01:12:45.310Z,59.33
2018-12-20T01:15:14.279Z,43.50
2018-12-20T01:17:43.091Z,42.00
2018-12-20T01:20:12.093Z,44.37
2018-12-20T01:22:40.925Z,42.70
2018-12-20T01:25:09.643Z,55.00
2018-12-20T01:27:38.496Z,55.00
2018-12-20T01:30:08.405Z,42.57
2018-12-20T01:32:37.210Z,41.83
2018-12-20T01:35:06.086Z,44.67
2018-12-20T01:37:34.892Z,58.80
2018-12-20T01:40:04.008Z,46.90
2018-12-20T01:42:32.828Z,51.73
2018-12-20T01:45:01.836Z,29.63
2018-12-20T01:47:31.040Z,47.40
2018-12-20T01:49:59.856Z,50.47
2018-12-20T01:52:28.838Z,40.50
2018-12-20T01:54:57.853Z,26.63
2018-12-20T01:57:26.683Z,31.27
2018-12-20T01:59:55.424Z,44.37
2018-12-20T02:02:24.157Z,22.70
2018-12-20T02:04:52.888Z,38.13
2018-12-20T02:07:21.613Z,40.00
2018-12-20T02:09:50.315Z,34.27
2018-12-20T02:12:19.034Z,38.77
2018-12-20T02:14:47.971Z,46.63
2018-12-20T02:17:17.041Z,40.37
2018-12-20T02:19:46.023Z,25.77
2018-12-20T02:22:15.764Z,26.37
2018-12-20T02:24:44.664Z,41.20
2018-12-20T02:27:13.518Z,41.70
2018-12-20T02:29:42.441Z,53.33
2018-12-20T02:32:11.196Z,37.53
2018-12-20T02:34:40.483Z,35.77
2018-12-20T02:37:09.280Z,42.20
2018-12-20T02:39:38.050Z,38.20
2018-12-20T02:42:06.857Z,44.80
2018-12-20T02:44:35.554Z,49.73
2018-12-20T02:47:04.472Z,28.87
2018-12-20T02:49:33.479Z,49.50
2018-12-20T02:52:02.512Z,33.17
2018-12-20T02:54:31.353Z,47.27
2018-12-20T02:57:00.144Z,49.93
2018-12-20T02:59:29.092Z,47.57
2018-12-20T03:01:57.913Z,52.37
2018-12-20T03:04:26.837Z,48.80
2018-12-20T03:06:55.682Z,29.00
2018-12-20T03:09:24.452Z,46.90
2018-12-20T03:11:53.858Z,45.57
2018-12-20T03:14:22.490Z,40.80
2018-12-20T03:16:51.290Z,29.80
2018-12-20T03:19:20.169Z,37.57
2018-12-20T03:21:48.883Z,44.77
2018-12-20T03:24:17.592Z,23.83
2018-12-20T03:26:46.502Z,42.27
2018-12-20T03:29:15.366Z,35.07
2018-12-20T03:31:44.025Z,54.47
2018-12-20T03:34:12.745Z,45.53
2018-12-20T03:36:41.585Z,43.17
2018-12-20T03:39:10.454Z,33.53
2018-12-20T03:41:39.505Z,25.40
2018-12-20T03:44:08.595Z,39.27
2018-12-20T03:46:37.410Z,41.57
2018-12-20T03:49:06.300Z,42.77
2018-12-20T03:51:35.195Z,35.90
2018-12-20T03:54:05.294Z,35.63
2018-12-20T03:56:34.122Z,41.13
2018-12-20T03:59:02.857Z,44.50
2018-12-20T04:01:31.658Z,26.23
2018-12-20T04:04:00.350Z,32.87
2018-12-20T04:06:29.041Z,38.87
2018-12-20T04:08:57.944Z,36.33
2018-12-20T04:11:26.801Z,45.37
2018-12-20T04:13:55.562Z,43.67
2018-12-20T04:16:24.282Z,41.30
2018-12-20T04:18:53.182Z,28.03
2018-12-20T04:21:21.941Z,31.77
2018-12-20T04:23:50.875Z,45.00
2018-12-20T04:26:19.854Z,45.67
2018-12-20T04:28:48.707Z,47.53
2018-12-20T04:31:18.417Z,42.03
2018-12-20T04:33:47.342Z,40.00
2018-12-20T04:36:16.341Z,55.77
2018-12-20T04:38:45.254Z,36.87
2018-12-20T04:41:14.270Z,42.73
2018-12-20T04:43:43.207Z,33.10
2018-12-20T04:46:12.379Z,39.50
2018-12-20T04:48:41.331Z,35.53
2018-12-20T04:51:10.355Z,47.17
2018-12-20T04:53:39.428Z,45.50
2018-12-20T04:56:08.605Z,45.03
2018-12-20T04:58:37.728Z,34.17
2018-12-20T05:01:06.624Z,40.83
2018-12-20T05:03:35.349Z,38.87
2018-12-20T05:06:04.111Z,23.63
2018-12-20T05:08:32.856Z,51.20
2018-12-20T05:11:02.250Z,42.17
2018-12-20T05:13:31.183Z,51.57
2018-12-20T05:15:59.986Z,31.13
2018-12-20T05:18:29.089Z,52.20
2018-12-20T05:20:57.746Z,47.17
2018-12-20T05:23:26.438Z,51.13
2018-12-20T05:25:55.332Z,47.57
2018-12-20T05:28:24.297Z,25.13
2018-12-20T05:30:53.143Z,47.33
2018-12-20T05:33:21.994Z,42.30
2018-12-20T05:35:50.982Z,53.70
2018-12-20T05:38:20.017Z,41.77
2018-12-20T05:40:49.231Z,45.27
2018-12-20T05:43:18.114Z,27.50
2018-12-20T05:45:46.933Z,32.03
2018-12-20T05:48:15.937Z,46.23
2018-12-20T05:50:44.843Z,34.07
2018-12-20T05:53:13.727Z,53.30
2018-12-20T05:55:42.510Z,49.50
2018-12-20T05:58:11.205Z,35.03
2018-12-20T06:00:39.922Z,43.23
2018-12-20T06:03:08.924Z,47.30
2018-12-20T06:05:37.936Z,41.63
2018-12-20T06:08:07.119Z,51.67
2018-12-20T06:10:35.821Z,39.07
2018-12-20T06:13:04.602Z,49.37
2018-12-20T06:15:34.658Z,45.33
2018-12-20T06:18:03.410Z,37.53
2018-12-20T06:20:32.564Z,43.70
2018-12-20T06:23:01.230Z,46.53
2018-12-20T06:25:30.011Z,53.50
2018-12-20T06:27:58.769Z,40.87
2018-12-20T06:30:27.442Z,36.33
2018-12-20T06:32:56.258Z,50.53
2018-12-20T06:35:25.159Z,34.47
2018-12-20T06:37:53.808Z,56.27
2018-12-20T06:40:22.570Z,54.93
2018-12-20T06:42:51.230Z,50.67
2018-12-20T06:45:20.142Z,51.17
2018-12-20T06:47:48.892Z,52.80
2018-12-20T06:50:17.671Z,57.03
2018-12-20T06:52:46.461Z,54.97
2018-12-20T06:55:15.914Z,50.23
2018-12-20T06:57:44.693Z,59.17
2018-12-20T07:00:13.365Z,47.00
2018-12-20T07:02:42.067Z,46.23
2018-12-20T07:05:11.008Z,60.93
2018-12-20T07:07:39.729Z,55.03
2018-12-20T07:10:09.157Z,52.90
2018-12-20T07:12:37.829Z,55.30
2018-12-20T07:15:08.390Z,67.37
2018-12-20T07:17:37.209Z,44.50
2018-12-20T07:20:06.066Z,39.00
2018-12-20T07:22:35.073Z,33.53
2018-12-20T07:25:04.593Z,48.93
2018-12-20T07:27:33.261Z,60.23
2018-12-20T07:30:02.111Z,56.67
2018-12-20T07:32:30.987Z,37.27
2018-12-20T07:35:00.054Z,33.47
2018-12-20T07:37:28.850Z,59.50
2018-12-20T07:39:57.512Z,59.07
2018-12-20T07:42:26.261Z,59.03
2018-12-20T07:44:55.046Z,66.17
2018-12-20T07:47:24.296Z,278.07
2018-12-20T07:49:53.137Z,58.47
2018-12-20T07:52:22.353Z,37.57
2018-12-20T07:54:51.117Z,48.83
2018-12-20T07:57:20.079Z,56.27
2018-12-20T07:59:48.849Z,44.57
2018-12-20T08:02:17.537Z,48.90
2018-12-20T08:04:46.241Z,52.40
2018-12-20T08:07:14.902Z,47.37
2018-12-20T08:09:43.896Z,32.13
2018-12-20T08:12:12.682Z,57.17
2018-12-20T08:14:41.497Z,53.53
2018-12-20T08:17:10.154Z,44.63
2018-12-20T08:19:38.832Z,67.50
2018-12-20T08:22:07.624Z,50.27
2018-12-20T08:24:36.606Z,33.13
2018-12-20T08:27:05.388Z,48.13
2018-12-20T08:29:34.281Z,55.07
2018-12-20T08:32:03.293Z,34.30
2018-12-20T08:34:31.993Z,42.07
2018-12-20T08:37:00.949Z,28.23
2018-12-20T08:39:29.609Z,43.07
2018-12-20T08:41:58.533Z,51.77
2018-12-20T08:44:27.341Z,51.53
2018-12-20T08:46:56.010Z,49.50
2018-12-20T08:49:24.702Z,52.60
2018-12-20T08:51:53.360Z,28.47
2018-12-20T08:54:22.157Z,58.63
2018-12-20T08:56:50.970Z,34.60
2018-12-20T08:59:19.665Z,36.43
2018-12-20T09:01:48.422Z,54.57
2018-12-20T09:04:17.201Z,38.17
2018-12-20T09:06:46.227Z,46.23
2018-12-20T09:09:14.887Z,63.50
2018-12-20T09:11:43.553Z,49.60
2018-12-20T09:14:13.085Z,63.10
2018-12-20T09:16:41.944Z,40.77
2018-12-20T09:19:10.871Z,54.40
2018-12-20T09:21:39.733Z,48.40
2018-12-20T09:24:08.436Z,47.93
2018-12-20T09:26:37.111Z,53.90
2018-12-20T09:29:05.865Z,26.53
2018-12-20T09:31:34.452Z,20.43
2018-12-20T09:34:03.279Z,36.30
2018-12-20T09:36:31.982Z,36.63
2018-12-20T09:39:00.647Z,50.33
2018-12-20T09:41:29.350Z,56.50
2018-12-20T09:43:57.987Z,41.17
2018-12-20T09:46:26.726Z,48.17
2018-12-20T09:48:55.492Z,35.90
2018-12-20T09:51:24.383Z,43.53
2018-12-20T09:53:54.092Z,53.03
2018-12-20T09:56:22.791Z,54.23
2018-12-20T09:58:51.486Z,35.73
2018-12-20T10:01:20.286Z,59.63
2018-12-20T10:03:48.913Z,53.50
2018-12-20T10:06:17.846Z,53.57
2018-12-20T10:08:46.513Z,48.43
2018-12-20T10:11:15.298Z,50.63
2018-12-20T10:13:44.058Z,40.90
2018-12-20T10:16:12.826Z,26.93
2018-12-20T10:18:41.454Z,36.87
2018-12-20T10:21:10.255Z,40.20
2018-12-20T10:23:39.058Z,37.30
2018-12-20T10:26:07.701Z,48.60
2018-12-20T10:28:36.385Z,56.17
2018-12-20T10:31:05.070Z,56.43
2018-12-20T10:33:33.783Z,60.60
2018-12-20T10:36:02.456Z,37.90
2018-12-20T10:38:31.343Z,58.97
2018-12-20T10:41:00.279Z,52.93
2018-12-20T10:43:29.012Z,56.00
2018-12-20T10:45:58.722Z,64.77
2018-12-20T10:48:27.414Z,49.23
2018-12-20T10:50:56.307Z,35.27
2018-12-20T10:53:24.962Z,57.13
2018-12-20T10:55:53.823Z,47.63
2018-12-20T10:58:22.582Z,37.30
2018-12-20T11:00:56.621Z,45.53
2018-12-20T11:03:30.647Z,34.67
2018-12-20T11:06:01.533Z,60.50
2018-12-20T11:08:30.412Z,52.90
2018-12-20T11:11:05.957Z,37.43
2018-12-20T11:13:34.818Z,39.00
2018-12-20T11:16:03.548Z,24.47
2018-12-20T11:18:32.424Z,51.40
2018-12-20T11:21:01.122Z,40.40
2018-12-20T11:23:29.765Z,55.43
2018-12-20T11:25:58.500Z,56.93
2018-12-20T11:28:27.418Z,58.80
2018-12-20T11:30:56.159Z,55.63
2018-12-20T11:33:24.854Z,56.30
2018-12-20T11:35:53.505Z,55.27
2018-12-20T11:38:22.335Z,70.33
2018-12-20T11:40:51.047Z,65.47
2018-12-20T11:43:19.886Z,61.30
2018-12-20T11:45:48.622Z,58.87
2018-12-20T11:48:17.227Z,43.20
2018-12-20T11:50:46.030Z,60.90
2018-12-20T11:53:14.932Z,58.00
2018-12-20T11:55:43.724Z,55.40
2018-12-20T11:58:12.386Z,33.47
2018-12-20T12:00:41.290Z,58.23
2018-12-20T12:03:09.985Z,65.47
2018-12-20T12:05:38.677Z,54.87
2018-12-20T12:08:07.406Z,67.57
2018-12-20T12:10:36.174Z,59.57
2018-12-20T12:13:04.929Z,61.20
2018-12-20T12:15:33.663Z,46.17
2018-12-20T12:18:02.400Z,63.97
2018-12-20T12:20:31.111Z,64.83
2018-12-20T12:22:59.882Z,69.07
2018-12-20T12:25:28.581Z,68.00
2018-12-20T12:27:57.237Z,65.57
2018-12-20T12:30:25.949Z,65.27
2018-12-20T12:32:54.607Z,67.07
2018-12-20T12:35:23.273Z,63.20
2018-12-20T12:37:51.993Z,63.37
2018-12-20T12:40:20.869Z,66.50
2018-12-20T12:42:49.556Z,71.53
2018-12-20T12:45:18.236Z,72.13
2018-12-20T12:47:52.306Z,52.80
2018-12-20T12:50:20.935Z,73.37
2018-12-20T12:52:49.696Z,81.23
2018-12-20T12:55:18.480Z,58.57
2018-12-20T12:57:47.186Z,72.83
2018-12-20T13:00:19.921Z,66.23
2018-12-20T13:02:48.879Z,77.00
2018-12-20T13:05:17.823Z,73.27
2018-12-20T13:07:46.519Z,63.07
2018-12-20T13:10:15.205Z,63.83
2018-12-20T13:12:44.225Z,68.50
2018-12-20T13:15:12.889Z,62.03
2018-12-20T13:17:41.658Z,66.87
2018-12-20T13:20:11.304Z,67.03
2018-12-20T13:22:39.951Z,58.33
2018-12-20T13:25:09.090Z,51.97
2018-12-20T13:27:37.863Z,51.60
2018-12-20T13:30:09.969Z,66.67
2018-12-20T13:32:38.714Z,63.53
2018-12-20T13:35:07.518Z,70.20
2018-12-20T13:37:36.175Z,60.40
2018-12-20T13:40:05.958Z,65.10
2018-12-20T13:42:34.590Z,59.93
2018-12-20T13:45:03.434Z,69.63
2018-12-20T13:47:32.170Z,72.57
2018-12-20T13:50:00.840Z,73.43
2018-12-20T13:52:31.589Z,58.60
2018-12-20T13:55:00.367Z,76.33
2018-12-20T13:57:29.240Z,67.47
2018-12-20T13:59:57.853Z,71.23
2018-12-20T14:02:26.616Z,70.20
2018-12-20T14:04:55.351Z,78.30
2018-12-20T14:07:24.447Z,59.17
2018-12-20T14:09:53.061Z,64.07
2018-12-20T14:12:21.970Z,84.33
2018-12-20T14:14:50.678Z,75.20
2018-12-20T14:17:19.371Z,69.67
2018-12-20T14:19:48.027Z,79.03
2018-12-20T14:22:16.717Z,72.97
2018-12-20T14:24:45.426Z,67.93
2018-12-20T14:27:14.110Z,71.67
2018-12-20T14:29:42.819Z,76.23
2018-12-20T14:32:11.557Z,76.37
2018-12-20T14:34:40.280Z,68.00
2018-12-20T14:37:08.945Z,71.77
2018-12-20T14:39:37.810Z,86.97
2018-12-20T14:42:06.707Z,71.30
2018-12-20T14:44:35.396Z,79.47
2018-12-20T14:47:04.407Z,77.43
2018-12-20T14:49:33.276Z,78.93
2018-12-20T14:52:01.962Z,82.00
2018-12-20T14:54:30.621Z,65.83
2018-12-20T14:56:59.368Z,76.60
2018-12-20T14:59:28.023Z,72.60
2018-12-20T15:01:56.800Z,69.43
2018-12-20T15:04:25.595Z,81.23
2018-12-20T15:06:54.234Z,77.60
2018-12-20T15:09:23.114Z,71.03
2018-12-20T15:11:52.040Z,78.57
2018-12-20T15:14:20.705Z,66.67
2018-12-20T15:16:49.572Z,68.90
2018-12-20T15:19:18.201Z,74.43
2018-12-20T15:21:46.869Z,72.33
2018-12-20T15:24:15.685Z,72.40
2018-12-20T15:26:44.343Z,75.17
2018-12-20T15:29:13.248Z,73.23
2018-12-20T15:31:41.937Z,76.27
2018-12-20T15:34:10.735Z,75.30
2018-12-20T15:36:39.558Z,75.00
2018-12-20T15:39:08.481Z,84.93
2018-12-20T15:41:37.233Z,82.33
2018-12-20T15:44:05.858Z,95.63
2018-12-20T15:46:34.625Z,90.90
2018-12-20T15:49:03.497Z,96.33
2018-12-20T15:51:33.090Z,104.13
2018-12-20T15:54:02.694Z,107.03
2018-12-20T15:56:31.367Z,91.43
2018-12-20T15:59:00.104Z,94.67
2018-12-20T16:01:28.690Z,89.83
2018-12-20T16:03:57.463Z,98.87
2018-12-20T16:06:26.314Z,89.40
2018-12-20T16:08:54.985Z,70.13
2018-12-20T16:11:23.729Z,88.53
2018-12-20T16:13:52.638Z,99.50
2018-12-20T16:16:21.666Z,90.77
2018-12-20T16:18:50.414Z,98.00
2018-12-20T16:21:19.263Z,101.30
2018-12-20T16:23:48.090Z,89.83
2018-12-20T16:27:41.316Z,86.80
2018-12-20T16:30:11.191Z,95.80
2018-12-20T16:32:40.127Z,100.50
2018-12-20T16:35:09.102Z,101.50
2018-12-20T16:37:37.883Z,87.17
2018-12-20T16:40:07.161Z,91.10
2018-12-20T16:42:36.030Z,104.97
2018-12-20T16:45:06.015Z,99.17
2018-12-20T16:47:34.891Z,95.37
2018-12-20T16:50:04.239Z,103.33
2018-12-20T16:52:33.091Z,108.47
2018-12-20T16:55:01.752Z,106.37
2018-12-20T16:57:30.452Z,95.93
2018-12-20T16:59:59.270Z,99.57
2018-12-20T17:02:28.116Z,90.90
2018-12-20T17:04:56.910Z,103.27
2018-12-20T17:07:25.878Z,91.33
2018-12-20T17:09:55.353Z,96.50
2018-12-20T17:12:24.250Z,96.97
2018-12-20T17:14:53.048Z,83.77
2018-12-20T17:17:21.822Z,84.10
2018-12-20T17:19:50.750Z,97.93
2018-12-20T17:22:19.696Z,85.90
2018-12-20T17:24:48.496Z,86.67
2018-12-20T17:27:17.250Z,121.87
2018-12-20T17:29:46.062Z,127.83
2018-12-20T17:32:15.079Z,126.63
2018-12-20T17:34:43.804Z,117.07
2018-12-20T17:37:12.587Z,120.63
2018-12-20T17:39:41.267Z,133.90
2018-12-20T17:42:11.638Z,139.87
2018-12-20T17:44:40.448Z,126.93
2018-12-20T17:48:12.592Z,119.30
2018-12-20T17:50:41.325Z,147.27
2018-12-20T17:53:09.966Z,126.97
2018-12-20T17:55:44.712Z,117.33
2018-12-20T17:58:09.515Z,119.60
2018-12-20T18:00:38.220Z,129.37
2018-12-20T18:03:06.979Z,147.07
2018-12-20T18:05:35.784Z,149.20
2018-12-20T18:08:04.477Z,161.47
2018-12-20T18:10:33.198Z,152.50
2018-12-20T18:13:01.853Z,156.77
2018-12-20T18:15:30.705Z,165.83
2018-12-20T18:17:59.433Z,144.03
2018-12-20T18:20:28.101Z,140.63
2018-12-20T18:22:56.840Z,157.43
2018-12-20T18:25:25.594Z,144.90
2018-12-20T18:27:55.159Z,156.63
2018-12-20T18:30:23.863Z,148.77
2018-12-20T18:32:52.573Z,148.40
2018-12-20T18:35:21.209Z,138.80
2018-12-20T18:37:50.086Z,158.10
2018-12-20T18:40:19.036Z,145.37
2018-12-20T18:42:47.954Z,149.00
2018-12-20T18:45:16.681Z,152.70
2018-12-20T18:47:45.422Z,148.03
2018-12-20T18:50:14.159Z,144.70
2018-12-20T18:52:42.876Z,120.20
2018-12-20T18:55:11.639Z,157.70
2018-12-20T18:57:40.295Z,154.33
2018-12-20T19:00:10.508Z,141.07
2018-12-20T19:02:39.268Z,155.53
2018-12-20T19:05:08.772Z,151.20
2018-12-20T19:07:37.785Z,148.53
2018-12-20T19:10:07.959Z,148.33
2018-12-20T19:12:36.638Z,151.33
2018-12-20T19:15:07.022Z,148.13
2018-12-20T19:17:35.855Z,145.50
2018-12-20T19:20:06.126Z,149.10
2018-12-20T19:22:35.989Z,153.13
2018-12-20T19:25:05.005Z,151.60
2018-12-20T19:27:35.192Z,161.27
2018-12-20T19:30:06.098Z,158.80
2018-12-20T19:32:34.777Z,141.73
2018-12-20T19:35:03.506Z,150.63
2018-12-20T19:37:32.270Z,158.67
2018-12-20T19:40:04.048Z,157.47
2018-12-20T19:42:32.839Z,152.27
2018-12-20T19:45:02.144Z,160.13
2018-12-20T19:47:31.873Z,146.93
2018-12-20T19:50:04.749Z,155.03
2018-12-20T19:52:31.344Z,157.13
2018-12-20T19:55:00.597Z,150.13
2018-12-20T19:57:29.213Z,140.40
2018-12-20T19:59:57.935Z,131.07
2018-12-20T20:02:26.563Z,167.03
2018-12-20T20:04:55.256Z,149.70
2018-12-20T20:07:24.144Z,170.73
2018-12-20T20:09:53.164Z,150.20
2018-12-20T20:12:21.846Z,166.07
2018-12-20T20:14:50.526Z,163.87
2018-12-20T20:17:19.235Z,160.43
2018-12-20T20:19:48.148Z,143.43
2018-12-20T20:22:16.806Z,166.87
2018-12-20T20:24:45.466Z,177.93
2018-12-20T20:27:14.178Z,161.47
2018-12-20T20:29:42.850Z,160.77
2018-12-20T20:32:11.525Z,164.57
2018-12-20T20:34:41.239Z,167.70
2018-12-20T20:37:12.343Z,153.20
2018-12-20T20:39:49.908Z,153.47
2018-12-20T20:42:18.782Z,165.97
2018-12-20T20:44:47.671Z,167.73
2018-12-20T20:47:16.375Z,173.27
2018-12-20T20:49:45.080Z,152.03
2018-12-20T20:52:13.815Z,157.87
2018-12-20T20:54:42.564Z,170.50
2018-12-20T20:57:11.496Z,154.80
2018-12-20T20:59:40.195Z,161.70
2018-12-20T21:02:09.684Z,150.50
2018-12-20T21:04:38.446Z,153.30
2018-12-20T21:07:15.803Z,146.53
2018-12-20T21:09:44.686Z,146.97
2018-12-20T21:12:13.406Z,154.80
2018-12-20T21:14:42.144Z,156.70
2018-12-20T21:17:11.008Z,158.90
2018-12-20T21:19:39.742Z,155.40
2018-12-20T21:22:08.379Z,149.37
2018-12-20T21:24:37.065Z,155.80
2018-12-20T21:27:05.750Z,154.50
2018-12-20T21:29:36.462Z,150.63
2018-12-20T21:32:05.239Z,167.73
2018-12-20T21:34:34.129Z,167.53
2018-12-20T21:37:03.026Z,155.00
2018-12-20T21:39:34.238Z,170.67
2018-12-20T21:42:06.700Z,158.60
2018-12-20T21:44:35.325Z,167.33
2018-12-20T21:47:04.331Z,161.17
2018-12-20T21:49:33.258Z,161.07
2018-12-20T21:52:01.941Z,157.27
2018-12-20T21:54:32.541Z,151.07
2018-12-20T21:57:01.244Z,170.10
2018-12-20T21:59:31.324Z,174.07
2018-12-20T22:02:00.235Z,161.70
2018-12-20T22:04:29.944Z,161.47
2018-12-20T22:06:58.753Z,148.87
2018-12-20T22:09:27.604Z,154.93
2018-12-20T22:11:56.331Z,151.80
2018-12-20T22:14:25.031Z,161.33
2018-12-20T22:16:53.718Z,150.00
2018-12-20T22:19:24.069Z,158.03
2018-12-20T22:21:53.159Z,161.37
2018-12-20T22:24:21.926Z,148.63
2018-12-20T22:26:50.566Z,161.80
2018-12-20T22:29:19.366Z,148.67
2018-12-20T22:31:48.207Z,154.93
2018-12-20T22:34:16.992Z,152.43
2018-12-20T22:36:45.731Z,160.50
2018-12-20T22:39:14.422Z,156.40
2018-12-20T22:41:43.112Z,146.77
2018-12-20T22:44:11.787Z,169.10
2018-12-20T22:46:40.514Z,153.60
2018-12-20T22:49:09.301Z,155.17
2018-12-20T22:51:38.059Z,155.43
2018-12-20T22:54:06.705Z,144.40
2018-12-20T22:56:35.597Z,147.27
2018-12-20T22:59:04.307Z,156.23
2018-12-20T23:01:33.106Z,162.87
2018-12-20T23:04:01.791Z,143.80
2018-12-20T23:06:30.552Z,146.77
2018-12-20T23:08:59.340Z,154.23
2018-12-20T23:11:28.019Z,153.23
2018-12-20T23:13:56.730Z,147.70
2018-12-20T23:16:28.021Z,154.70
2018-12-20T23:18:56.871Z,140.60
2018-12-20T23:21:25.700Z,151.33
2018-12-20T23:23:54.441Z,156.07
2018-12-20T23:26:23.120Z,157.47
2018-12-20T23:28:51.777Z,163.30
2018-12-20T23:31:20.493Z,149.53
2018-12-20T23:33:49.152Z,149.57
2018-12-20T23:36:17.862Z,159.50
2018-12-20T23:38:46.732Z,153.30
2018-12-20T23:41:15.407Z,149.70
2018-12-20T23:43:44.121Z,157.57
2018-12-20T23:46:12.806Z,156.00
2018-12-20T23:48:41.489Z,162.57
2018-12-20T23:51:13.865Z,153.10
2018-12-20T23:53:40.868Z,158.37
2018-12-20T23:56:09.605Z,156.73
2018-12-20T23:58:38.271Z,154.73
